createdAt,value
2019-01-04T00:00:44.965Z,103213.94
2019-01-04T00:03:14.742Z,103213.22
2019-01-04T00:05:44.811Z,103209.86
2019-01-04T00:08:14.625Z,103215.98
2019-01-04T00:10:44.385Z,103216.91
2019-01-04T00:13:14.188Z,103205.33
2019-01-04T00:15:43.968Z,103209.55
2019-01-04T00:18:13.765Z,103218.73
2019-01-04T00:20:43.532Z,103214.13
2019-01-04T00:23:13.339Z,103210.27
2019-01-04T00:25:43.098Z,103205.52
2019-01-04T00:28:12.895Z,103214.19
2019-01-04T00:30:42.664Z,103207.36
2019-01-04T00:33:12.422Z,103199.19
2019-01-04T00:35:42.200Z,103203.55
2019-01-04T00:38:11.977Z,103208.30
2019-01-04T00:40:41.825Z,103211.80
2019-01-04T00:43:11.723Z,103217.20
2019-01-04T00:45:41.963Z,103214.88
2019-01-04T00:48:11.780Z,103213.33
2019-01-04T00:50:41.545Z,103219.37
2019-01-04T00:53:11.329Z,103219.90
2019-01-04T00:56:13.958Z,103221.70
2019-01-04T00:59:03.331Z,103217.86
2019-01-04T01:01:58.356Z,103202.44
2019-01-04T01:04:49.194Z,103202.45
2019-01-04T01:07:47.195Z,103197.77
2019-01-04T01:11:12.981Z,103194.50
2019-01-04T01:14:05.883Z,103197.08
2019-01-04T01:16:55.494Z,103199.41
2019-01-04T01:19:32.701Z,103204.57
2019-01-04T01:22:49.508Z,103202.91
2019-01-04T01:25:38.377Z,103199.19
2019-01-04T01:28:54.543Z,103204.32
2019-01-04T01:31:58.901Z,103190.47
2019-01-04T01:34:56.947Z,103197.41
2019-01-04T01:37:59.528Z,103208.95
2019-01-04T01:41:12.818Z,103215.62
2019-01-04T01:44:28.330Z,103212.41
2019-01-04T01:47:02.567Z,103213.58
2019-01-04T01:49:52.923Z,103204.93
2019-01-04T01:52:36.417Z,103196.07
2019-01-04T01:55:06.525Z,103198.66
2019-01-04T01:57:36.399Z,103214.34
2019-01-04T02:00:07.102Z,103231.11
2019-01-04T02:02:36.883Z,103225.47
2019-01-04T02:05:07.182Z,103232.81
2019-01-04T02:07:36.951Z,103221.78
2019-01-04T02:10:08.343Z,103217.83
2019-01-04T02:12:38.109Z,103216.02
2019-01-04T02:15:08.710Z,103215.87
2019-01-04T02:17:38.507Z,103222.31
2019-01-04T02:20:08.487Z,103233.09
2019-01-04T02:22:38.324Z,103237.19
2019-01-04T02:25:08.123Z,103236.67
2019-01-04T02:27:37.904Z,103239.63
2019-01-04T02:30:08.676Z,103237.69
2019-01-04T02:32:38.495Z,103237.16
2019-01-04T02:35:08.361Z,103239.58
2019-01-04T02:37:38.174Z,103234.52
2019-01-04T02:40:07.931Z,103236.64
2019-01-04T02:42:37.770Z,103236.00
2019-01-04T02:45:07.673Z,103230.58
2019-01-04T02:47:37.495Z,103232.64
2019-01-04T02:50:07.411Z,103225.58
2019-01-04T02:52:37.187Z,103231.14
2019-01-04T02:55:06.976Z,103221.70
2019-01-04T02:57:36.787Z,103214.89
2019-01-04T03:00:09.266Z,103222.22
2019-01-04T03:02:39.193Z,103215.03
2019-01-04T03:05:08.968Z,103219.28
2019-01-04T03:07:38.747Z,103223.48
2019-01-04T03:10:08.538Z,103230.45
2019-01-04T03:12:38.316Z,103224.56
2019-01-04T03:15:08.132Z,103219.67
2019-01-04T03:17:37.948Z,103213.47
2019-01-04T03:20:07.759Z,103201.95
2019-01-04T03:22:37.555Z,103210.89
2019-01-04T03:25:07.376Z,103209.49
2019-01-04T03:27:37.150Z,103207.20
2019-01-04T03:30:07.269Z,103216.32
2019-01-04T03:32:37.033Z,103219.36
2019-01-04T03:35:06.914Z,103215.41
2019-01-04T03:37:37.566Z,103215.00
2019-01-04T03:40:10.034Z,103208.59
2019-01-04T03:42:39.839Z,103206.25
2019-01-04T03:45:09.593Z,103209.61
2019-01-04T03:47:39.418Z,103207.40
2019-01-04T03:50:09.170Z,103198.56
2019-01-04T03:52:38.968Z,103200.34
2019-01-04T03:55:08.856Z,103200.04
2019-01-04T03:57:38.638Z,103200.33
2019-01-04T04:00:10.219Z,103209.48
2019-01-04T04:02:39.979Z,103204.01
2019-01-04T04:05:09.784Z,103204.39
2019-01-04T04:07:40.213Z,103199.14
2019-01-04T04:10:10.008Z,103199.92
2019-01-04T04:12:39.768Z,103207.88
2019-01-04T04:15:09.542Z,103201.95
2019-01-04T04:17:39.308Z,103207.37
2019-01-04T04:20:09.223Z,103204.01
2019-01-04T04:22:39.098Z,103203.50
2019-01-04T04:25:08.862Z,103199.39
2019-01-04T04:27:38.703Z,103195.00
2019-01-04T04:30:09.279Z,103193.16
2019-01-04T04:32:39.065Z,103189.97
2019-01-04T04:35:08.863Z,103198.56
2019-01-04T04:37:38.663Z,103199.34
2019-01-04T04:40:08.463Z,103197.13
2019-01-04T04:42:38.245Z,103186.98
2019-01-04T04:45:08.020Z,103178.59
2019-01-04T04:47:37.887Z,103187.74
2019-01-04T04:50:08.004Z,103191.68
2019-01-04T04:52:37.892Z,103188.27
2019-01-04T04:55:07.770Z,103198.42
2019-01-04T04:57:37.499Z,103196.27
2019-01-04T05:00:09.199Z,103201.25
2019-01-04T05:02:38.957Z,103196.47
2019-01-04T05:05:08.714Z,103190.31
2019-01-04T05:07:38.532Z,103192.69
2019-01-04T05:10:08.261Z,103191.95
2019-01-04T05:12:38.043Z,103194.38
2019-01-04T05:15:07.818Z,103189.25
2019-01-04T05:17:37.583Z,103192.73
2019-01-04T05:20:07.385Z,103188.98
2019-01-04T05:22:37.150Z,103193.73
2019-01-04T05:25:06.931Z,103188.83
2019-01-04T05:27:36.708Z,103185.78
2019-01-04T05:30:06.825Z,103178.97
2019-01-04T05:32:36.598Z,103178.67
2019-01-04T05:35:06.799Z,103172.59
2019-01-04T05:37:36.593Z,103175.05
2019-01-04T05:40:08.500Z,103177.31
2019-01-04T05:42:38.289Z,103186.06
2019-01-04T05:45:08.454Z,103189.98
2019-01-04T05:47:38.333Z,103182.45
2019-01-04T05:50:08.549Z,103181.64
2019-01-04T05:52:38.312Z,103178.04
2019-01-04T05:55:08.076Z,103187.48
2019-01-04T05:57:37.913Z,103183.38
2019-01-04T06:00:10.762Z,103177.73
2019-01-04T06:02:40.544Z,103188.36
2019-01-04T06:05:12.324Z,103186.42
2019-01-04T06:07:42.081Z,103189.84
2019-01-04T06:10:11.854Z,103193.39
2019-01-04T06:12:41.633Z,103193.14
2019-01-04T06:15:11.402Z,103191.85
2019-01-04T06:17:41.210Z,103178.53
2019-01-04T06:20:10.976Z,103171.77
2019-01-04T06:22:40.734Z,103170.48
2019-01-04T06:25:10.507Z,103167.59
2019-01-04T06:27:40.401Z,103165.66
2019-01-04T06:30:10.189Z,103165.66
2019-01-04T06:32:39.978Z,103161.63
2019-01-04T06:35:09.782Z,103162.27
2019-01-04T06:37:39.534Z,103165.80
2019-01-04T06:40:11.049Z,103163.45
2019-01-04T06:42:40.807Z,103165.02
2019-01-04T06:45:11.498Z,103160.73
2019-01-04T06:47:41.639Z,103151.95
2019-01-04T06:50:11.447Z,103160.28
2019-01-04T06:52:41.239Z,103169.63
2019-01-04T06:55:24.821Z,103165.67
2019-01-04T06:57:54.666Z,103167.97
2019-01-04T07:00:24.425Z,103159.45
2019-01-04T07:02:54.558Z,103161.09
2019-01-04T07:05:24.334Z,103158.88
2019-01-04T07:07:54.143Z,103156.08
2019-01-04T07:10:23.960Z,103164.40
2019-01-04T07:12:53.764Z,103174.06
2019-01-04T07:15:23.545Z,103181.35
2019-01-04T07:17:53.323Z,103178.73
2019-01-04T07:20:23.103Z,103181.63
2019-01-04T07:22:52.888Z,103183.39
2019-01-04T07:25:22.691Z,103187.68
2019-01-04T07:27:52.482Z,103194.28
2019-01-04T07:30:22.240Z,103192.42
2019-01-04T07:32:52.074Z,103188.87
2019-01-04T07:35:22.215Z,103184.84
2019-01-04T07:37:52.003Z,103184.41
2019-01-04T07:40:21.797Z,103182.56
2019-01-04T07:42:51.589Z,103186.12
2019-01-04T07:45:21.369Z,103189.47
2019-01-04T07:47:51.136Z,103185.53
2019-01-04T07:50:20.944Z,103189.81
2019-01-04T07:52:50.732Z,103197.06
2019-01-04T07:55:20.522Z,103186.36
2019-01-04T07:57:50.396Z,103182.64
2019-01-04T08:00:20.446Z,103179.77
2019-01-04T08:02:50.538Z,103175.78
2019-01-04T08:05:20.719Z,103175.61
2019-01-04T08:07:50.519Z,103180.24
2019-01-04T08:10:20.315Z,103185.11
2019-01-04T08:12:50.136Z,103191.23
2019-01-04T08:15:19.930Z,103202.81
2019-01-04T08:17:49.746Z,103191.22
2019-01-04T08:20:19.541Z,103191.22
2019-01-04T08:22:49.315Z,103195.02
2019-01-04T08:25:19.109Z,103192.56
2019-01-04T08:27:48.879Z,103179.56
2019-01-04T08:30:18.769Z,103178.79
2019-01-04T08:32:48.892Z,103175.39
2019-01-04T08:35:18.715Z,103180.05
2019-01-04T08:37:48.490Z,103188.91
2019-01-04T08:40:18.284Z,103192.01
2019-01-04T08:42:48.277Z,103194.80
2019-01-04T08:45:18.059Z,103202.53
2019-01-04T08:47:47.850Z,103207.13
2019-01-04T08:50:17.633Z,103205.58
2019-01-04T08:52:47.450Z,103203.42
2019-01-04T08:55:17.257Z,103201.44
2019-01-04T08:57:47.058Z,103195.94
2019-01-04T09:00:17.180Z,103193.29
2019-01-04T09:02:46.975Z,103191.03
2019-01-04T09:05:16.774Z,103192.50
2019-01-04T09:07:46.586Z,103190.67
2019-01-04T09:10:16.370Z,103194.64
2019-01-04T09:13:05.452Z,103187.10
2019-01-04T09:15:35.248Z,103179.00
2019-01-04T09:18:05.024Z,103169.53
2019-01-04T09:20:34.806Z,103176.20
2019-01-04T09:23:04.603Z,103167.70
2019-01-04T09:25:34.418Z,103154.19
2019-01-04T09:28:04.318Z,103153.19
2019-01-04T09:30:34.131Z,103145.06
2019-01-04T09:33:03.906Z,103147.42
2019-01-04T09:35:33.683Z,103135.73
2019-01-04T09:38:03.519Z,103138.56
2019-01-04T09:40:33.298Z,103138.14
2019-01-04T09:43:03.479Z,103144.91
2019-01-04T09:45:33.293Z,103144.25
2019-01-04T09:48:03.100Z,103139.61
2019-01-04T09:50:32.871Z,103136.70
2019-01-04T09:53:02.630Z,103141.37
2019-01-04T09:55:32.435Z,103129.36
2019-01-04T09:58:02.235Z,103124.97
2019-01-04T10:00:32.060Z,103119.64
2019-01-04T10:03:01.824Z,103119.61
2019-01-04T10:05:31.634Z,103124.85
2019-01-04T10:08:01.448Z,103111.95
2019-01-04T10:10:31.229Z,103109.38
2019-01-04T10:13:01.019Z,103104.53
2019-01-04T10:15:30.812Z,103099.94
2019-01-04T10:18:00.606Z,103091.30
2019-01-04T10:20:30.411Z,103094.28
2019-01-04T10:23:00.184Z,103093.24
2019-01-04T10:25:30.009Z,103088.91
2019-01-04T10:27:59.787Z,103083.84
2019-01-04T10:30:29.594Z,103083.70
2019-01-04T10:33:00.472Z,103078.56
2019-01-04T10:35:30.256Z,103068.10
2019-01-04T10:38:00.059Z,103068.63
2019-01-04T10:40:29.944Z,103060.77
2019-01-04T10:42:59.720Z,103058.24
2019-01-04T10:45:29.542Z,103058.16
2019-01-04T10:47:59.340Z,103059.05
2019-01-04T10:50:29.125Z,103054.50
2019-01-04T10:52:58.931Z,103042.46
2019-01-04T10:55:28.708Z,103044.67
2019-01-04T10:57:58.513Z,103034.89
2019-01-04T11:00:28.330Z,103033.95
2019-01-04T11:02:58.879Z,103030.67
2019-01-04T11:05:28.692Z,103031.87
2019-01-04T11:07:58.472Z,103030.31
2019-01-04T11:10:28.389Z,103030.22
2019-01-04T11:12:58.379Z,103024.17
2019-01-04T11:15:28.209Z,103017.06
2019-01-04T11:17:58.996Z,103015.02
2019-01-04T11:20:44.086Z,103016.74
2019-01-04T11:23:27.238Z,103018.70
2019-01-04T11:26:19.914Z,103013.04
2019-01-04T11:29:29.321Z,103013.38
2019-01-04T11:32:22.380Z,103009.56
2019-01-04T11:35:05.304Z,102996.66
2019-01-04T11:38:00.734Z,102986.52
2019-01-04T11:41:17.402Z,102984.34
2019-01-04T11:44:08.245Z,102989.93
2019-01-04T11:47:09.803Z,102986.61
2019-01-04T11:50:18.847Z,102986.58
2019-01-04T11:52:49.252Z,102985.43
2019-01-04T11:55:19.040Z,102985.69
2019-01-04T11:57:48.951Z,102976.31
2019-01-04T12:00:18.822Z,102982.95
2019-01-04T12:02:48.628Z,102968.91
2019-01-04T12:05:18.514Z,102964.67
2019-01-04T12:07:48.421Z,102957.24
2019-01-04T12:10:18.170Z,102959.15
2019-01-04T12:12:47.978Z,102966.27
2019-01-04T12:15:17.816Z,102964.06
2019-01-04T12:17:47.588Z,102958.53
2019-01-04T12:20:17.494Z,102947.50
2019-01-04T12:22:47.303Z,102948.02
2019-01-04T12:25:17.094Z,102935.14
2019-01-04T12:27:46.906Z,102934.06
2019-01-04T12:30:16.674Z,102925.16
2019-01-04T12:32:46.522Z,102930.69
2019-01-04T12:35:16.308Z,102927.41
2019-01-04T12:37:46.147Z,102916.78
2019-01-04T12:40:16.290Z,102924.09
2019-01-04T12:42:46.287Z,102925.53
2019-01-04T12:45:16.083Z,102929.23
2019-01-04T12:47:45.871Z,102941.77
2019-01-04T12:50:15.677Z,102943.33
2019-01-04T12:52:45.440Z,102940.97
2019-01-04T12:55:15.187Z,102941.81
2019-01-04T12:57:45.071Z,102944.27
2019-01-04T13:00:15.323Z,102935.82
2019-01-04T13:02:45.115Z,102940.17
2019-01-04T13:05:14.910Z,102939.55
2019-01-04T13:07:44.684Z,102927.15
2019-01-04T13:10:14.482Z,102928.34
2019-01-04T13:12:44.385Z,102925.04
2019-01-04T13:15:14.199Z,102924.53
2019-01-04T13:17:43.972Z,102919.15
2019-01-04T13:20:13.978Z,102917.16
2019-01-04T13:22:43.822Z,102904.56
2019-01-04T13:25:13.632Z,102898.63
2019-01-04T13:27:43.421Z,102895.75
2019-01-04T13:30:13.231Z,102909.26
2019-01-04T13:32:43.021Z,102909.05
2019-01-04T13:35:12.818Z,102898.73
2019-01-04T13:37:42.753Z,102916.34
2019-01-04T13:40:12.553Z,102911.09
2019-01-04T13:42:42.385Z,102910.11
2019-01-04T13:45:12.146Z,102906.47
2019-01-04T13:47:41.949Z,102909.36
2019-01-04T13:50:11.770Z,102909.54
2019-01-04T13:52:41.536Z,102901.27
2019-01-04T13:55:11.419Z,102900.73
2019-01-04T13:57:41.204Z,102895.58
2019-01-04T14:00:11.740Z,102885.66
2019-01-04T14:02:41.949Z,102885.27
2019-01-04T14:05:11.761Z,102886.33
2019-01-04T14:07:41.580Z,102887.92
2019-01-04T14:10:11.349Z,102890.22
2019-01-04T14:12:41.177Z,102880.91
2019-01-04T14:15:10.955Z,102884.05
2019-01-04T14:17:40.778Z,102883.91
2019-01-04T14:20:10.675Z,102878.09
2019-01-04T14:22:40.643Z,102877.37
2019-01-04T14:25:10.426Z,102883.05
2019-01-04T14:27:40.207Z,102880.44
2019-01-04T14:30:12.374Z,102872.91
2019-01-04T14:32:42.171Z,102873.47
2019-01-04T14:35:11.972Z,102884.30
2019-01-04T14:37:41.783Z,102885.38
2019-01-04T14:40:12.280Z,102884.81
2019-01-04T14:42:42.103Z,102883.20
2019-01-04T14:45:12.432Z,102889.52
2019-01-04T14:47:42.207Z,102882.81
2019-01-04T14:50:13.048Z,102884.04
2019-01-04T14:52:43.265Z,102890.87
2019-01-04T14:55:13.427Z,102882.20
2019-01-04T14:57:43.240Z,102882.59
2019-01-04T15:00:13.449Z,102889.39
2019-01-04T15:02:43.248Z,102889.39
2019-01-04T15:05:13.063Z,102881.41
2019-01-04T15:07:42.996Z,102867.91
2019-01-04T15:10:12.773Z,102863.22
2019-01-04T15:12:42.863Z,102862.33
2019-01-04T15:15:12.666Z,102865.23
2019-01-04T15:17:42.443Z,102857.05
2019-01-04T15:20:12.246Z,102851.51
2019-01-04T15:22:42.032Z,102846.19
2019-01-04T15:25:11.845Z,102847.78
2019-01-04T15:27:41.662Z,102851.73
2019-01-04T15:30:12.277Z,102848.04
2019-01-04T15:32:42.074Z,102843.95
2019-01-04T15:35:11.926Z,102841.11
2019-01-04T15:37:41.715Z,102854.25
2019-01-04T15:40:11.528Z,102865.50
2019-01-04T15:42:41.393Z,102868.96
2019-01-04T15:45:11.329Z,102869.49
2019-01-04T15:47:41.119Z,102877.23
2019-01-04T15:50:11.001Z,102873.35
2019-01-04T15:52:40.816Z,102877.23
2019-01-04T15:55:10.619Z,102876.12
2019-01-04T15:57:40.416Z,102877.21
2019-01-04T16:00:12.583Z,102867.31
2019-01-04T16:02:43.017Z,102849.00
2019-01-04T16:05:12.814Z,102838.47
2019-01-04T16:07:42.620Z,102840.22
2019-01-04T16:10:12.445Z,102844.41
2019-01-04T16:12:42.245Z,102837.98
2019-01-04T16:15:12.042Z,102829.70
2019-01-04T16:17:41.844Z,102834.70
2019-01-04T16:20:12.734Z,102837.58
2019-01-04T16:22:42.524Z,102843.31
2019-01-04T16:25:12.425Z,102844.11
2019-01-04T16:27:42.249Z,102840.16
2019-01-04T16:30:12.770Z,102847.58
2019-01-04T16:32:42.599Z,102846.22
2019-01-04T16:35:12.382Z,102849.65
2019-01-04T16:37:42.170Z,102850.88
2019-01-04T16:40:12.276Z,102854.50
2019-01-04T16:42:42.080Z,102842.59
2019-01-04T16:45:11.895Z,102831.51
2019-01-04T16:47:41.691Z,102825.70
2019-01-04T16:50:11.504Z,102819.10
2019-01-04T16:52:41.290Z,102815.25
2019-01-04T16:55:11.101Z,102822.34
2019-01-04T16:57:41.430Z,102817.42
2019-01-04T17:00:12.219Z,102810.77
2019-01-04T17:02:42.003Z,102819.34
2019-01-04T17:05:11.907Z,102814.13
2019-01-04T17:07:41.698Z,102817.59
2019-01-04T17:10:11.510Z,102813.70
2019-01-04T17:12:41.294Z,102798.20
2019-01-04T17:15:11.088Z,102811.22
2019-01-04T17:17:40.872Z,102794.84
2019-01-04T17:20:10.708Z,102794.01
2019-01-04T17:22:40.512Z,102800.40
2019-01-04T17:25:10.306Z,102797.23
2019-01-04T17:27:40.091Z,102793.88
2019-01-04T17:30:10.722Z,102805.38
2019-01-04T17:32:40.561Z,102809.21
2019-01-04T17:35:10.392Z,102801.59
2019-01-04T17:37:40.221Z,102799.08
2019-01-04T17:40:10.734Z,102800.22
2019-01-04T17:42:40.987Z,102787.77
2019-01-04T17:45:11.075Z,102785.50
2019-01-04T17:47:41.098Z,102789.42
2019-01-04T17:50:10.852Z,102775.11
2019-01-04T17:52:40.659Z,102790.58
2019-01-04T17:55:10.651Z,102786.05
2019-01-04T17:57:40.476Z,102776.40
2019-01-04T18:00:11.439Z,102787.84
2019-01-04T18:02:41.251Z,102774.55
2019-01-04T18:05:11.030Z,102783.25
2019-01-04T18:07:40.830Z,102783.03
2019-01-04T18:10:11.060Z,102773.42
2019-01-04T18:12:40.867Z,102776.40
2019-01-04T18:15:10.693Z,102774.55
2019-01-04T18:17:40.487Z,102780.02
2019-01-04T18:20:11.079Z,102794.01
2019-01-04T18:22:40.990Z,102792.89
2019-01-04T18:25:10.772Z,102784.05
2019-01-04T18:27:40.564Z,102795.48
2019-01-04T18:30:11.172Z,102790.50
2019-01-04T18:32:41.040Z,102792.91
2019-01-04T18:35:11.220Z,102791.30
2019-01-04T18:37:41.222Z,102789.13
2019-01-04T18:40:11.510Z,102789.70
2019-01-04T18:42:41.395Z,102794.33
2019-01-04T18:45:11.229Z,102791.07
2019-01-04T18:47:42.758Z,102800.40
2019-01-04T18:50:14.441Z,102800.95
2019-01-04T18:52:44.211Z,102794.03
2019-01-04T18:55:14.004Z,102787.70
2019-01-04T18:57:43.766Z,102786.81
2019-01-04T19:00:13.783Z,102794.84
2019-01-04T19:02:43.666Z,102805.44
2019-01-04T19:05:14.415Z,102799.87
2019-01-04T19:07:44.235Z,102792.10
2019-01-04T19:10:14.023Z,102795.72
2019-01-04T19:12:43.940Z,102798.77
2019-01-04T19:15:13.761Z,102803.33
2019-01-04T19:17:43.562Z,102816.84
2019-01-04T19:20:13.485Z,102821.67
2019-01-04T19:22:44.290Z,102809.23
2019-01-04T19:25:14.125Z,102805.05
2019-01-04T19:27:43.901Z,102798.87
2019-01-04T19:30:13.725Z,102803.84
2019-01-04T19:32:43.837Z,102807.45
2019-01-04T19:35:13.650Z,102804.24
2019-01-04T19:37:43.449Z,102802.52
2019-01-04T19:40:13.254Z,102805.69
2019-01-04T19:42:43.093Z,102804.31
2019-01-04T19:45:12.907Z,102801.52
2019-01-04T19:47:42.721Z,102807.91
2019-01-04T19:50:19.979Z,102807.91
2019-01-04T19:52:50.917Z,102810.16
2019-01-04T19:55:20.825Z,102803.73
2019-01-04T19:57:50.627Z,102793.70
2019-01-04T20:00:20.433Z,102794.44
2019-01-04T20:02:50.233Z,102798.36
2019-01-04T20:05:25.092Z,102793.30
2019-01-04T20:08:11.172Z,102793.24
2019-01-04T20:11:29.780Z,102792.75
2019-01-04T20:14:25.672Z,102786.37
2019-01-04T20:17:12.326Z,102783.72
2019-01-04T20:19:58.287Z,102783.57
2019-01-04T20:22:29.758Z,102781.42
2019-01-04T20:25:13.294Z,102780.94
2019-01-04T20:27:54.875Z,102778.43
2019-01-04T20:30:42.445Z,102792.52
2019-01-04T20:33:29.745Z,102782.75
2019-01-04T20:36:01.121Z,102790.90
2019-01-04T20:38:48.511Z,102788.33
2019-01-04T20:41:35.011Z,102780.19
2019-01-04T20:44:15.312Z,102781.09
2019-01-04T20:46:47.701Z,102778.19
2019-01-04T20:49:24.961Z,102784.46
2019-01-04T20:52:12.539Z,102782.95
2019-01-04T20:54:43.884Z,102784.14
2019-01-04T20:57:15.278Z,102788.63
2019-01-04T20:59:52.598Z,102792.09
2019-01-04T21:02:39.023Z,102791.13
2019-01-04T21:05:19.385Z,102786.88
2019-01-04T21:07:50.832Z,102789.52
2019-01-04T21:10:31.173Z,102795.55
2019-01-04T21:13:01.245Z,102784.70
2019-01-04T21:15:32.591Z,102786.48
2019-01-04T21:18:13.023Z,102779.66
2019-01-04T21:20:44.690Z,102778.77
2019-01-04T21:23:31.240Z,102781.88
2019-01-04T21:26:08.450Z,102777.88
2019-01-04T21:28:47.013Z,102768.48
2019-01-04T21:31:27.428Z,102763.41
2019-01-04T21:34:14.873Z,102768.65
2019-01-04T21:37:02.458Z,102762.34
2019-01-04T21:39:50.280Z,102758.26
2019-01-04T21:42:21.671Z,102753.12
2019-01-04T21:44:57.126Z,102753.12
2019-01-04T21:47:28.453Z,102744.12
2019-01-04T21:50:18.008Z,102748.04
2019-01-04T21:52:55.035Z,102737.39
2019-01-04T21:55:30.666Z,102731.48
2019-01-04T21:58:04.555Z,102727.33
2019-01-04T22:00:50.936Z,102734.55
2019-01-04T22:03:25.951Z,102721.07
2019-01-04T22:06:09.024Z,102729.91
2019-01-04T22:08:53.659Z,102729.34
2019-01-04T22:11:27.553Z,102730.47
2019-01-04T22:14:04.580Z,102719.35
2019-01-04T22:16:41.593Z,102716.55
2019-01-04T22:19:12.992Z,102713.47
2019-01-04T22:21:44.390Z,102700.63
2019-01-04T22:24:31.760Z,102704.91
2019-01-04T22:27:09.278Z,102701.18
2019-01-04T22:29:43.519Z,102700.87
2019-01-04T22:32:17.758Z,102702.89
2019-01-04T22:34:58.029Z,102692.41
2019-01-04T22:37:47.497Z,102683.84
2019-01-04T22:40:35.187Z,102678.82
2019-01-04T22:43:22.890Z,102689.20
2019-01-04T22:45:54.403Z,102682.84
2019-01-04T22:48:40.878Z,102681.00
2019-01-04T22:51:19.411Z,102678.13
2019-01-04T22:54:05.847Z,102676.09
2019-01-04T22:56:46.112Z,102674.94
2019-01-04T22:59:17.528Z,102673.75
2019-01-04T23:02:04.867Z,102671.72
2019-01-04T23:04:44.996Z,102672.25
2019-01-04T23:07:16.399Z,102675.02
2019-01-04T23:10:04.138Z,102666.40
2019-01-04T23:12:38.037Z,102667.52
2019-01-04T23:15:25.635Z,102666.00
2019-01-04T23:18:02.840Z,102672.22
2019-01-04T23:20:39.903Z,102659.48
2019-01-04T23:23:26.386Z,102654.73
2019-01-04T23:25:57.766Z,102651.41
2019-01-04T23:28:44.891Z,102659.98
2019-01-04T23:31:16.272Z,102654.08
2019-01-04T23:33:57.471Z,102662.28
2019-01-04T23:36:31.369Z,102653.72
2019-01-04T23:39:06.835Z,102655.94
2019-01-04T23:41:54.354Z,102654.73
2019-01-04T23:44:23.853Z,102650.83
2019-01-04T23:47:08.198Z,102649.27
2019-01-04T23:49:55.577Z,102643.63
2019-01-04T23:52:35.805Z,102639.44
2019-01-04T23:55:14.385Z,102639.64
2019-01-04T23:58:03.959Z,102632.75
